Time,TemperatureF,DewpointF,PressureIn,WindDirection,WindDirectionDegrees,WindSpeedMPH,WindSpeedGustMPH,Humidity,HourlyPrecipIn,Conditions,Clouds,dailyrainin,SoftwareType,DateUTC
2013-03-20 00:02:00,34.0,17.0,-100.00,ESE,110,4.0,6.0,50,0.00,,,-99.99,,2013-03-20 06:02:00,
2013-03-20 00:12:00,31.0,18.0,-100.00,ENE,61,3.0,4.0,57,0.00,,,-99.99,,2013-03-20 06:12:00,
2013-03-20 00:22:00,31.0,18.0,-100.00,ENE,61,3.0,4.0,57,0.00,,,-99.99,,2013-03-20 06:22:00,
2013-03-20 00:32:00,31.0,18.0,-100.00,ENE,61,3.0,4.0,57,0.00,,,-99.99,,2013-03-20 06:32:00,
2013-03-20 00:42:00,30.0,19.0,-100.00,ENE,58,3.0,4.0,61,0.00,,,-99.99,,2013-03-20 06:42:00,
2013-03-20 00:52:00,31.0,20.0,-100.00,NNE,14,5.0,6.0,65,0.00,,,-99.99,,2013-03-20 06:52:00,
2013-03-20 01:02:00,31.0,20.0,-100.00,NNE,14,5.0,6.0,65,0.00,,,-99.99,,2013-03-20 07:02:00,
2013-03-20 01:12:00,31.0,21.0,-100.00,NNE,17,6.0,6.0,66,0.00,,,-99.99,,2013-03-20 07:12:00,
2013-03-20 01:22:00,31.0,21.0,-100.00,NNE,17,6.0,6.0,66,0.00,,,-99.99,,2013-03-20 07:22:00,
2013-03-20 01:31:00,31.0,21.0,-100.00,NNE,17,6.0,6.0,66,0.00,,,-99.99,,2013-03-20 07:31:00,
2013-03-20 01:42:00,31.0,21.0,-100.00,NNE,17,5.0,6.0,66,0.00,,,-99.99,,2013-03-20 07:42:00,
2013-03-20 01:52:00,31.0,21.0,-100.00,NNE,17,5.0,6.0,66,0.00,,,-99.99,,2013-03-20 07:52:00,
2013-03-20 02:02:00,31.0,21.0,-100.00,NNE,17,5.0,6.0,66,0.00,,,-99.99,,2013-03-20 08:02:00,
2013-03-20 02:12:00,31.0,21.0,-100.00,NNE,13,8.0,9.0,66,0.00,,,-99.99,,2013-03-20 08:12:00,
2013-03-20 02:22:00,31.0,21.0,-100.00,North,6,7.0,8.0,67,0.00,,,-99.99,,2013-03-20 08:22:00,
2013-03-20 02:32:00,31.0,21.0,-100.00,North,6,7.0,8.0,67,0.00,,,-99.99,,2013-03-20 08:32:00,
2013-03-20 02:42:00,31.0,21.0,-100.00,North,10,8.0,9.0,66,0.00,,,-99.99,,2013-03-20 08:42:00,
2013-03-20 02:52:00,32.0,21.0,-100.00,North,4,6.0,7.0,64,0.00,,,-99.99,,2013-03-20 08:52:00,
2013-03-20 03:02:00,32.0,21.0,-100.00,North,4,6.0,7.0,64,0.00,,,-99.99,,2013-03-20 09:02:00,
2013-03-20 03:11:00,33.0,21.0,-100.00,North,10,8.0,11.0,61,0.00,,,-99.99,,2013-03-20 09:11:00,
2013-03-20 03:22:00,33.0,20.0,-100.00,North,11,8.0,9.0,60,0.00,,,-99.99,,2013-03-20 09:22:00,
2013-03-20 03:32:00,33.0,20.0,-100.00,North,11,8.0,9.0,60,0.00,,,-99.99,,2013-03-20 09:32:00,
2013-03-20 03:42:00,33.0,20.0,-100.00,North,352,6.0,7.0,58,0.00,,,-99.99,,2013-03-20 09:42:00,
2013-03-20 03:53:00,33.0,20.0,-100.00,North,4,7.0,9.0,58,0.00,,,-99.99,,2013-03-20 09:53:00,
2013-03-20 04:02:00,33.0,20.0,-100.00,North,4,7.0,9.0,58,0.00,,,-99.99,,2013-03-20 10:02:00,
2013-03-20 04:12:00,33.0,20.0,-100.00,North,4,7.0,9.0,58,0.00,,,-99.99,,2013-03-20 10:12:00,
2013-03-20 04:22:00,34.0,21.0,-100.00,North,349,6.0,8.0,58,0.00,,,-99.99,,2013-03-20 10:22:00,
2013-03-20 04:32:00,34.0,21.0,-100.00,North,349,6.0,8.0,58,0.00,,,-99.99,,2013-03-20 10:32:00,
2013-03-20 04:43:00,34.0,21.0,-100.00,NNW,344,5.0,6.0,59,0.00,,,-99.99,,2013-03-20 10:43:00,
2013-03-20 04:53:00,34.0,21.0,-100.00,NNW,347,6.0,8.0,58,0.00,,,-99.99,,2013-03-20 10:53:00,
2013-03-20 05:02:00,34.0,21.0,-100.00,NNW,347,6.0,8.0,58,0.00,,,-99.99,,2013-03-20 11:02:00,
2013-03-20 05:12:00,34.0,21.0,-100.00,NNW,347,6.0,8.0,58,0.00,,,-99.99,,2013-03-20 11:12:00,
2013-03-20 05:22:00,34.0,21.0,-100.00,NNW,346,4.0,6.0,58,0.00,,,-99.99,,2013-03-20 11:22:00,
2013-03-20 05:32:00,34.0,21.0,-100.00,NNW,346,4.0,6.0,58,0.00,,,-99.99,,2013-03-20 11:32:00,
2013-03-20 05:42:00,33.0,22.0,-100.00,North,354,5.0,6.0,63,0.00,,,-99.99,,2013-03-20 11:42:00,
2013-03-20 05:52:00,34.0,22.0,-100.00,North,350,4.0,6.0,63,0.00,,,-99.99,,2013-03-20 11:52:00,
2013-03-20 06:02:00,34.0,22.0,-100.00,North,350,4.0,6.0,63,0.00,,,-99.99,,2013-03-20 12:02:00,
2013-03-20 06:12:00,34.0,23.0,-100.00,NW,322,4.0,6.0,63,0.00,,,-99.99,,2013-03-20 12:12:00,
2013-03-20 06:22:00,34.0,23.0,-100.00,NW,322,4.0,6.0,63,0.00,,,-99.99,,2013-03-20 12:22:00,
2013-03-20 06:32:00,34.0,23.0,-100.00,NW,322,4.0,6.0,63,0.00,,,-99.99,,2013-03-20 12:32:00,
2013-03-20 06:42:00,35.0,21.0,-100.00,NNW,332,4.0,5.0,58,0.00,,,-99.99,,2013-03-20 12:42:00,
2013-03-20 06:52:00,38.0,23.0,-100.00,SW,229,7.0,9.0,54,0.04,,,-99.99,,2013-03-20 12:52:00,
2013-03-20 07:02:00,38.0,23.0,-100.00,SW,229,7.0,9.0,54,0.04,,,-99.99,,2013-03-20 13:02:00,
2013-03-20 07:12:00,37.0,26.0,-100.00,WSW,244,4.0,6.0,63,0.00,,,-99.99,,2013-03-20 13:12:00,
2013-03-20 07:22:00,37.0,26.0,-100.00,WSW,244,4.0,6.0,63,0.00,,,-99.99,,2013-03-20 13:22:00,
2013-03-20 07:32:00,37.0,26.0,-100.00,WSW,244,4.0,6.0,63,0.00,,,-99.99,,2013-03-20 13:32:00,
2013-03-20 07:42:00,35.0,27.0,-100.00,WNW,285,0.0,0.0,74,0.00,,,-99.99,,2013-03-20 13:42:00,
2013-03-20 07:53:00,34.0,29.0,-100.00,North,11,0.0,1.0,80,0.08,,,-99.99,,2013-03-20 13:53:00,
2013-03-20 08:02:00,34.0,29.0,-100.00,North,11,0.0,1.0,80,0.08,,,-99.99,,2013-03-20 14:02:00,
2013-03-20 08:12:00,35.0,30.0,-100.00,South,186,2.0,4.0,83,0.08,,,-99.99,,2013-03-20 14:12:00,
2013-03-20 08:22:00,35.0,30.0,-100.00,South,186,2.0,4.0,83,0.08,,,-99.99,,2013-03-20 14:22:00,
2013-03-20 08:32:00,35.0,30.0,-100.00,South,186,2.0,4.0,83,0.08,,,-99.99,,2013-03-20 14:32:00,
2013-03-20 08:42:00,36.0,33.0,-100.00,SSE,167,14.0,17.0,89,0.04,,,-99.99,,2013-03-20 14:42:00,
2013-03-20 08:52:00,35.0,33.0,-100.00,South,171,12.0,16.0,93,0.20,,,-99.99,,2013-03-20 14:52:00,
2013-03-20 09:02:00,35.0,33.0,-100.00,South,171,12.0,16.0,93,0.20,,,-99.99,,2013-03-20 15:02:00,
2013-03-20 09:12:00,34.0,33.0,-100.00,South,184,7.0,10.0,96,0.12,,,-99.99,,2013-03-20 15:12:00,
2013-03-20 09:22:00,33.0,33.0,-100.00,South,188,5.0,7.0,97,0.04,,,-99.99,,2013-03-20 15:22:00,
2013-03-20 09:33:00,33.0,33.0,-100.00,South,188,5.0,7.0,97,0.04,,,-99.99,,2013-03-20 15:33:00,
2013-03-20 09:43:00,33.0,33.0,-100.00,South,188,5.0,7.0,97,0.04,,,-99.99,,2013-03-20 15:43:00,
2013-03-20 09:53:00,33.0,32.0,-100.00,South,188,5.0,6.0,98,0.04,,,-99.99,,2013-03-20 15:53:00,
2013-03-20 10:02:00,33.0,32.0,-100.00,South,188,5.0,6.0,98,0.04,,,-99.99,,2013-03-20 16:02:00,
2013-03-20 10:12:00,33.0,33.0,-100.00,SSE,155,7.0,9.0,99,0.04,,,-99.99,,2013-03-20 16:12:00,
2013-03-20 10:23:00,33.0,33.0,-100.00,SSE,152,7.0,9.0,99,0.00,,,-99.99,,2013-03-20 16:23:00,
2013-03-20 10:32:00,33.0,33.0,-100.00,SSE,152,7.0,9.0,99,0.00,,,-99.99,,2013-03-20 16:32:00,
2013-03-20 10:42:00,34.0,34.0,-100.00,South,172,5.0,7.0,99,0.00,,,-99.99,,2013-03-20 16:42:00,
2013-03-20 10:53:00,34.0,34.0,-100.00,SSW,196,6.0,9.0,98,0.00,,,-99.99,,2013-03-20 16:53:00,
2013-03-20 11:02:00,34.0,34.0,-100.00,SSW,196,6.0,9.0,98,0.00,,,-99.99,,2013-03-20 17:02:00,
2013-03-20 11:11:00,36.0,35.0,-100.00,South,188,8.0,13.0,98,0.00,,,-99.99,,2013-03-20 17:11:00,
2013-03-20 11:22:00,36.0,35.0,-100.00,South,186,9.0,13.0,96,0.00,,,-99.99,,2013-03-20 17:22:00,
2013-03-20 11:32:00,36.0,35.0,-100.00,South,186,9.0,13.0,96,0.00,,,-99.99,,2013-03-20 17:32:00,
2013-03-20 11:42:00,37.0,36.0,-100.00,South,186,11.0,17.0,95,0.00,,,-99.99,,2013-03-20 17:42:00,
2013-03-20 11:53:00,37.0,36.0,-100.00,South,186,11.0,17.0,95,0.00,,,-99.99,,2013-03-20 17:53:00,
2013-03-20 12:02:00,37.0,36.0,-100.00,South,186,11.0,17.0,95,0.00,,,-99.99,,2013-03-20 18:02:00,
2013-03-20 12:12:00,39.0,36.0,-100.00,South,191,7.0,10.0,92,0.00,,,-99.99,,2013-03-20 18:12:00,
2013-03-20 12:22:00,39.0,36.0,-100.00,South,191,7.0,10.0,92,0.00,,,-99.99,,2013-03-20 18:22:00,
2013-03-20 12:32:00,39.0,36.0,-100.00,South,191,7.0,10.0,92,0.00,,,-99.99,,2013-03-20 18:32:00,
2013-03-20 12:42:00,39.0,37.0,-100.00,SSW,193,6.0,9.0,92,0.00,,,-99.99,,2013-03-20 18:42:00,
2013-03-20 12:52:00,40.0,38.0,-100.00,South,178,7.0,10.0,92,0.00,,,-99.99,,2013-03-20 18:52:00,
2013-03-20 13:02:00,40.0,38.0,-100.00,South,178,7.0,10.0,92,0.00,,,-99.99,,2013-03-20 19:02:00,
2013-03-20 13:12:00,40.0,38.0,-100.00,South,178,7.0,10.0,92,0.00,,,-99.99,,2013-03-20 19:12:00,
2013-03-20 13:22:00,40.0,38.0,-100.00,SE,127,6.0,9.0,92,0.00,,,-99.99,,2013-03-20 19:22:00,
2013-03-20 13:32:00,40.0,38.0,-100.00,SE,127,6.0,9.0,92,0.00,,,-99.99,,2013-03-20 19:32:00,
2013-03-20 13:42:00,42.0,38.0,-100.00,SE,140,8.0,9.0,88,0.00,,,-99.99,,2013-03-20 19:42:00,
2013-03-20 13:53:00,42.0,38.0,-100.00,SSE,148,12.0,14.0,85,0.00,,,-99.99,,2013-03-20 19:53:00,
2013-03-20 14:02:00,42.0,38.0,-100.00,SSE,148,12.0,14.0,85,0.00,,,-99.99,,2013-03-20 20:02:00,
2013-03-20 14:12:00,43.0,39.0,-100.00,SE,137,8.0,10.0,86,0.00,,,-99.99,,2013-03-20 20:12:00,
2013-03-20 14:22:00,43.0,39.0,-100.00,SE,137,8.0,10.0,86,0.00,,,-99.99,,2013-03-20 20:22:00,
2013-03-20 14:32:00,43.0,39.0,-100.00,SE,137,8.0,10.0,86,0.00,,,-99.99,,2013-03-20 20:32:00,
2013-03-20 14:42:00,44.0,39.0,-100.00,SSE,152,7.0,11.0,83,0.00,,,-99.99,,2013-03-20 20:42:00,
2013-03-20 14:53:00,46.0,40.0,-100.00,SSW,196,9.0,12.0,80,0.00,,,-99.99,,2013-03-20 20:53:00,
2013-03-20 15:02:00,46.0,40.0,-100.00,SSW,196,9.0,12.0,80,0.00,,,-99.99,,2013-03-20 21:02:00,
2013-03-20 15:12:00,46.0,40.0,-100.00,SSW,200,8.0,12.0,78,0.00,,,-99.99,,2013-03-20 21:12:00,
2013-03-20 15:22:00,47.0,39.0,-100.00,SSW,196,12.0,16.0,76,0.00,,,-99.99,,2013-03-20 21:22:00,
2013-03-20 15:33:00,47.0,39.0,-100.00,SSW,196,12.0,16.0,76,0.00,,,-99.99,,2013-03-20 21:33:00,
2013-03-20 15:42:00,47.0,40.0,-100.00,SSW,198,10.0,17.0,77,0.00,,,-99.99,,2013-03-20 21:42:00,
2013-03-20 15:52:00,47.0,39.0,-100.00,SSW,203,10.0,14.0,76,0.08,,,-99.99,,2013-03-20 21:52:00,
2013-03-20 16:02:00,47.0,39.0,-100.00,SSW,203,10.0,14.0,76,0.08,,,-99.99,,2013-03-20 22:02:00,
2013-03-20 16:12:00,46.0,42.0,-100.00,SW,220,11.0,15.0,86,0.00,,,-99.99,,2013-03-20 22:12:00,
2013-03-20 16:23:00,46.0,41.0,-100.00,SW,233,16.0,20.0,81,0.00,,,-99.99,,2013-03-20 22:23:00,
2013-03-20 16:32:00,46.0,41.0,-100.00,SW,233,16.0,20.0,81,0.00,,,-99.99,,2013-03-20 22:32:00,
2013-03-20 16:42:00,46.0,41.0,-100.00,SW,233,16.0,20.0,81,0.00,,,-99.99,,2013-03-20 22:42:00,
2013-03-20 16:52:00,49.0,42.0,-100.00,SSW,202,11.0,15.0,77,0.00,,,-99.99,,2013-03-20 22:52:00,
2013-03-20 17:02:00,49.0,42.0,-100.00,SSW,202,11.0,15.0,77,0.00,,,-99.99,,2013-03-20 23:02:00,
2013-03-20 17:12:00,49.0,43.0,-100.00,SSW,192,10.0,13.0,79,0.00,,,-99.99,,2013-03-20 23:12:00,
2013-03-20 17:22:00,49.0,43.0,-100.00,SSW,192,10.0,13.0,79,0.00,,,-99.99,,2013-03-20 23:22:00,
2013-03-20 17:32:00,49.0,43.0,-100.00,SSW,192,10.0,13.0,79,0.00,,,-99.99,,2013-03-20 23:32:00,
2013-03-20 17:42:00,49.0,42.0,-100.00,South,179,11.0,14.0,77,0.00,,,-99.99,,2013-03-20 23:42:00,
2013-03-20 17:52:00,49.0,42.0,-100.00,South,179,11.0,14.0,77,0.00,,,-99.99,,2013-03-20 23:52:00,
2013-03-20 18:02:00,49.0,42.0,-100.00,South,179,11.0,14.0,77,0.00,,,-99.99,,2013-03-21 00:02:00,
2013-03-20 18:12:00,47.0,43.0,-100.00,South,175,11.0,16.0,88,1.50,,,-99.99,,2013-03-21 00:12:00,
2013-03-20 18:22:00,41.0,38.0,-100.00,South,189,12.0,15.0,88,0.04,,,-99.99,,2013-03-21 00:22:00,
2013-03-20 18:32:00,41.0,38.0,-100.00,South,189,12.0,15.0,88,0.04,,,-99.99,,2013-03-21 00:32:00,
2013-03-20 18:52:00,42.0,40.0,-100.00,South,188,7.0,10.0,91,0.16,,,-99.99,,2013-03-21 00:52:00,
2013-03-20 19:02:00,42.0,40.0,-100.00,South,188,7.0,10.0,91,0.16,,,-99.99,,2013-03-21 01:02:00,
2013-03-20 19:12:00,42.0,40.0,-100.00,South,188,7.0,10.0,91,0.16,,,-99.99,,2013-03-21 01:12:00,
2013-03-20 19:22:00,43.0,40.0,-100.00,SSE,154,6.0,8.0,89,0.00,,,-99.99,,2013-03-21 01:22:00,
2013-03-20 19:32:00,43.0,40.0,-100.00,SSE,154,6.0,8.0,89,0.00,,,-99.99,,2013-03-21 01:32:00,
2013-03-20 19:42:00,43.0,40.0,-100.00,SSE,152,12.0,13.0,88,0.00,,,-99.99,,2013-03-21 01:42:00,
2013-03-20 19:52:00,43.0,40.0,-100.00,SSE,162,12.0,15.0,88,0.00,,,-99.99,,2013-03-21 01:52:00,
2013-03-20 20:02:00,43.0,40.0,-100.00,SSE,162,12.0,15.0,88,0.00,,,-99.99,,2013-03-21 02:02:00,
2013-03-20 20:12:00,42.0,39.0,-100.00,SE,145,8.0,11.0,89,0.00,,,-99.99,,2013-03-21 02:12:00,
2013-03-20 20:22:00,41.0,38.0,-100.00,ESE,123,9.0,12.0,91,0.00,,,-99.99,,2013-03-21 02:22:00,
2013-03-20 20:32:00,41.0,38.0,-100.00,ESE,123,9.0,12.0,91,0.00,,,-99.99,,2013-03-21 02:32:00,
2013-03-20 20:42:00,41.0,38.0,-100.00,ESE,123,9.0,12.0,91,0.00,,,-99.99,,2013-03-21 02:42:00,
2013-03-20 20:52:00,41.0,38.0,-100.00,ESE,123,9.0,12.0,91,0.00,,,-99.99,,2013-03-21 02:52:00,
2013-03-20 21:02:00,40.0,38.0,-100.00,SE,128,11.0,14.0,90,0.00,,,-99.99,,2013-03-21 03:02:00,
2013-03-20 21:12:00,40.0,37.0,-100.00,SE,140,12.0,15.0,88,0.00,,,-99.99,,2013-03-21 03:12:00,
2013-03-20 21:22:00,40.0,37.0,-100.00,SE,143,15.0,18.0,86,0.00,,,-99.99,,2013-03-21 03:22:00,
2013-03-20 21:32:00,40.0,37.0,-100.00,SE,143,15.0,18.0,86,0.00,,,-99.99,,2013-03-21 03:32:00,
2013-03-20 21:43:00,41.0,36.0,-100.00,SE,140,15.0,18.0,85,0.00,,,-99.99,,2013-03-21 03:43:00,
2013-03-20 21:53:00,41.0,37.0,-100.00,SE,143,17.0,20.0,86,0.00,,,-99.99,,2013-03-21 03:53:00,
2013-03-20 22:02:00,41.0,37.0,-100.00,SE,143,17.0,20.0,86,0.00,,,-99.99,,2013-03-21 04:02:00,
2013-03-20 22:12:00,41.0,37.0,-100.00,SSE,154,20.0,24.0,85,0.00,,,-99.99,,2013-03-21 04:12:00,
2013-03-20 22:22:00,41.0,37.0,-100.00,SSE,154,20.0,24.0,85,0.00,,,-99.99,,2013-03-21 04:22:00,
2013-03-20 22:32:00,41.0,37.0,-100.00,SSE,154,20.0,24.0,85,0.00,,,-99.99,,2013-03-21 04:32:00,
2013-03-20 22:43:00,37.0,37.0,-100.00,WNW,282,10.0,13.0,97,0.08,,,-99.99,,2013-03-21 04:43:00,
2013-03-20 22:53:00,38.0,37.0,-100.00,SE,141,2.0,3.0,97,0.04,,,-99.99,,2013-03-21 04:53:00,
2013-03-20 23:02:00,38.0,37.0,-100.00,SE,141,2.0,3.0,97,0.04,,,-99.99,,2013-03-21 05:02:00,
2013-03-20 23:12:00,38.0,37.0,-100.00,ESE,117,4.0,6.0,98,0.00,,,-99.99,,2013-03-21 05:12:00,
2013-03-20 23:22:00,37.0,37.0,-100.00,SE,130,5.0,6.0,98,0.00,,,-99.99,,2013-03-21 05:22:00,
2013-03-20 23:32:00,37.0,37.0,-100.00,SE,130,5.0,6.0,98,0.00,,,-99.99,,2013-03-21 05:32:00,
2013-03-20 23:43:00,39.0,38.0,-100.00,SSW,212,7.0,11.0,97,0.00,,,-99.99,,2013-03-21 05:43:00,
2013-03-20 23:52:00,40.0,37.0,-100.00,SSW,200,7.0,9.0,90,0.00,,,-99.99,,2013-03-21 05:52:00,